createdAt,value
2018-11-03T00:00:32.049Z,16.14
2018-11-03T00:01:32.159Z,16.15
2018-11-03T00:02:32.086Z,16.20
2018-11-03T00:03:32.103Z,16.11
2018-11-03T00:04:32.122Z,16.14
2018-11-03T00:05:32.137Z,16.17
2018-11-03T00:06:32.151Z,16.11
2018-11-03T00:07:32.203Z,16.15
2018-11-03T00:08:32.195Z,16.17
2018-11-03T00:09:32.209Z,16.14
2018-11-03T00:10:32.226Z,16.12
2018-11-03T00:11:32.242Z,16.11
2018-11-03T00:12:32.262Z,16.21
2018-11-03T00:13:32.282Z,16.17
2018-11-03T00:14:32.299Z,16.12
2018-11-03T00:15:32.315Z,16.14
2018-11-03T00:16:32.338Z,16.15
2018-11-03T00:17:32.349Z,16.15
2018-11-03T00:18:32.374Z,16.15
2018-11-03T00:19:32.395Z,16.12
2018-11-03T00:20:32.410Z,16.15
2018-11-03T00:21:32.423Z,16.12
2018-11-03T00:22:32.447Z,16.17
2018-11-03T00:23:32.463Z,16.11
2018-11-03T00:24:32.479Z,16.14
2018-11-03T00:25:32.494Z,16.17
2018-11-03T00:26:32.522Z,16.14
2018-11-03T00:27:32.539Z,16.11
2018-11-03T00:28:32.574Z,16.07
2018-11-03T00:29:32.575Z,16.05
2018-11-03T00:30:32.595Z,16.21
2018-11-03T00:31:32.607Z,16.14
2018-11-03T00:32:32.617Z,16.08
2018-11-03T00:33:32.642Z,15.97
2018-11-03T00:34:32.659Z,15.94
2018-11-03T00:35:32.683Z,16.01
2018-11-03T00:36:32.694Z,15.89
2018-11-03T00:37:32.717Z,16.02
2018-11-03T00:38:32.729Z,15.89
2018-11-03T00:39:32.751Z,15.87
2018-11-03T00:40:32.799Z,15.83
2018-11-03T00:41:32.782Z,15.87
2018-11-03T00:42:32.803Z,15.90
2018-11-03T00:43:32.827Z,15.89
2018-11-03T00:44:32.848Z,16.00
2018-11-03T00:45:32.863Z,15.86
2018-11-03T00:46:32.879Z,15.96
2018-11-03T00:47:32.892Z,15.96
2018-11-03T00:48:32.910Z,15.93
2018-11-03T00:49:32.933Z,15.97
2018-11-03T00:50:32.947Z,15.83
2018-11-03T00:51:32.972Z,15.87
2018-11-03T00:52:32.987Z,15.86
2018-11-03T00:53:33.004Z,15.93
2018-11-03T00:54:33.023Z,15.90
2018-11-03T00:55:33.039Z,15.84
2018-11-03T00:56:33.058Z,15.83
2018-11-03T00:57:33.075Z,15.92
2018-11-03T00:58:33.091Z,15.94
2018-11-03T00:59:33.107Z,15.89
2018-11-03T01:00:33.127Z,15.84
2018-11-03T01:01:33.143Z,15.86
2018-11-03T01:02:33.159Z,15.86
2018-11-03T01:03:33.213Z,15.84
2018-11-03T01:04:33.191Z,15.93
2018-11-03T01:05:33.214Z,15.83
2018-11-03T01:06:33.235Z,15.89
2018-11-03T01:07:33.246Z,15.86
2018-11-03T01:08:33.268Z,15.83
2018-11-03T01:09:33.287Z,15.84
2018-11-03T01:10:33.307Z,15.82
2018-11-03T01:11:33.324Z,15.86
2018-11-03T01:12:33.338Z,15.83
2018-11-03T01:13:33.359Z,15.97
2018-11-03T01:14:33.378Z,15.86
2018-11-03T01:15:33.399Z,15.87
2018-11-03T01:16:33.416Z,15.83
2018-11-03T01:17:33.427Z,15.87
2018-11-03T01:18:33.452Z,15.93
2018-11-03T01:19:33.471Z,15.82
2018-11-03T01:20:33.495Z,15.82
2018-11-03T01:21:33.501Z,15.76
2018-11-03T01:22:33.520Z,15.80
2018-11-03T01:23:33.553Z,15.90
2018-11-03T01:24:33.619Z,15.78
2018-11-03T01:25:33.572Z,15.89
2018-11-03T01:26:33.587Z,15.84
2018-11-03T01:27:33.608Z,15.71
2018-11-03T01:28:33.624Z,15.78
2018-11-03T01:29:33.648Z,15.74
2018-11-03T01:30:33.659Z,15.78
2018-11-03T01:31:33.688Z,15.69
2018-11-03T01:32:33.796Z,15.69
2018-11-03T01:33:33.723Z,15.68
2018-11-03T01:34:33.736Z,15.82
2018-11-03T01:35:33.756Z,15.74
2018-11-03T01:36:33.772Z,15.69
2018-11-03T01:37:33.788Z,15.76
2018-11-03T01:38:33.806Z,15.76
2018-11-03T01:39:33.835Z,15.78
2018-11-03T01:40:33.839Z,15.76
2018-11-03T01:41:33.861Z,15.86
2018-11-03T01:42:33.880Z,15.76
2018-11-03T01:43:33.896Z,15.75
2018-11-03T01:44:33.911Z,15.74
2018-11-03T01:45:33.936Z,15.71
2018-11-03T01:46:33.949Z,15.71
2018-11-03T01:47:33.981Z,15.69
2018-11-03T01:48:33.996Z,15.75
2018-11-03T01:49:34.005Z,15.75
2018-11-03T01:50:34.022Z,15.75
2018-11-03T01:51:34.036Z,15.82
2018-11-03T01:52:34.052Z,15.74
2018-11-03T01:53:34.075Z,15.65
2018-11-03T01:54:34.180Z,15.74
2018-11-03T01:55:34.121Z,15.68
2018-11-03T01:56:34.127Z,15.72
2018-11-03T01:57:34.141Z,15.75
2018-11-03T01:58:34.165Z,15.82
2018-11-03T01:59:34.177Z,15.76
2018-11-03T02:00:34.240Z,15.78
2018-11-03T02:01:34.217Z,15.75
2018-11-03T02:02:34.232Z,15.75
2018-11-03T02:03:34.254Z,15.82
2018-11-03T02:04:34.269Z,15.75
2018-11-03T02:05:34.285Z,15.80
2018-11-03T02:06:34.309Z,15.75
2018-11-03T02:07:34.321Z,15.74
2018-11-03T02:08:34.363Z,15.74
2018-11-03T02:09:34.360Z,15.69
2018-11-03T02:10:34.380Z,15.72
2018-11-03T02:11:34.398Z,15.67
2018-11-03T02:12:34.461Z,15.67
2018-11-03T02:13:34.434Z,15.68
2018-11-03T02:14:34.469Z,15.67
2018-11-03T02:15:34.463Z,15.59
2018-11-03T02:16:34.494Z,15.54
2018-11-03T02:17:34.509Z,15.53
2018-11-03T02:18:34.519Z,15.49
2018-11-03T02:19:34.533Z,15.51
2018-11-03T02:20:34.554Z,15.51
2018-11-03T02:21:34.574Z,15.49
2018-11-03T02:22:34.595Z,15.35
2018-11-03T02:23:34.613Z,15.43
2018-11-03T02:24:34.625Z,15.43
2018-11-03T02:25:34.648Z,15.41
2018-11-03T02:26:34.665Z,15.38
2018-11-03T02:27:34.677Z,15.38
2018-11-03T02:28:34.698Z,15.38
2018-11-03T02:29:34.722Z,15.36
2018-11-03T02:30:34.741Z,15.41
2018-11-03T02:31:34.754Z,15.43
2018-11-03T02:32:34.775Z,15.39
2018-11-03T02:33:34.785Z,15.36
2018-11-03T02:34:34.840Z,15.29
2018-11-03T02:35:34.825Z,15.29
2018-11-03T02:36:34.842Z,15.29
2018-11-03T02:37:34.865Z,15.36
2018-11-03T02:38:34.873Z,15.29
2018-11-03T02:39:34.893Z,15.28
2018-11-03T02:40:34.914Z,15.35
2018-11-03T02:41:34.929Z,15.28
2018-11-03T02:42:34.970Z,15.35
2018-11-03T02:43:34.967Z,15.25
2018-11-03T02:44:34.981Z,15.35
2018-11-03T02:45:34.997Z,15.36
2018-11-03T02:46:35.009Z,15.31
2018-11-03T02:47:35.026Z,15.36
2018-11-03T02:48:35.056Z,15.29
2018-11-03T02:49:35.070Z,15.43
2018-11-03T02:50:35.133Z,15.27
2018-11-03T02:51:35.105Z,15.31
2018-11-03T02:52:35.119Z,15.29
2018-11-03T02:53:35.142Z,15.34
2018-11-03T02:54:35.199Z,15.31
2018-11-03T02:55:35.190Z,15.32
2018-11-03T02:56:35.190Z,15.29
2018-11-03T02:57:35.220Z,15.35
2018-11-03T02:58:35.240Z,15.31
2018-11-03T02:59:35.241Z,15.35
2018-11-03T03:00:35.267Z,15.29
2018-11-03T03:01:39.237Z,15.35
2018-11-03T03:02:35.303Z,15.28
2018-11-03T03:03:35.319Z,15.34
2018-11-03T03:04:35.330Z,15.34
2018-11-03T03:05:35.354Z,15.29
2018-11-03T03:06:35.370Z,15.34
2018-11-03T03:07:35.390Z,15.36
2018-11-03T03:08:35.411Z,15.31
2018-11-03T03:09:35.426Z,15.29
2018-11-03T03:10:35.446Z,15.32
2018-11-03T03:11:35.458Z,15.36
2018-11-03T03:12:35.474Z,15.35
2018-11-03T03:13:35.501Z,15.35
2018-11-03T03:14:35.510Z,15.36
2018-11-03T03:15:35.530Z,15.32
2018-11-03T03:16:35.546Z,15.28
2018-11-03T03:17:35.604Z,15.28
2018-11-03T03:18:35.583Z,15.34
2018-11-03T03:19:35.601Z,15.34
2018-11-03T03:20:35.619Z,15.34
2018-11-03T03:21:35.638Z,15.29
2018-11-03T03:22:35.650Z,15.21
2018-11-03T03:23:35.666Z,15.35
2018-11-03T03:24:35.687Z,15.27
2018-11-03T03:25:35.708Z,15.34
2018-11-03T03:26:35.727Z,15.23
2018-11-03T03:27:35.742Z,15.25
2018-11-03T03:28:35.764Z,15.25
2018-11-03T03:29:35.859Z,15.20
2018-11-03T03:30:35.799Z,15.25
2018-11-03T03:31:35.819Z,15.23
2018-11-03T03:32:35.833Z,15.23
2018-11-03T03:33:35.851Z,15.21
2018-11-03T03:34:35.862Z,15.29
2018-11-03T03:35:35.883Z,15.34
2018-11-03T03:36:35.950Z,15.36
2018-11-03T03:37:35.919Z,15.31
2018-11-03T03:38:35.937Z,15.35
2018-11-03T03:39:35.954Z,15.28
2018-11-03T03:40:35.973Z,15.27
2018-11-03T03:41:35.986Z,15.27
2018-11-03T03:42:36.064Z,15.21
2018-11-03T03:43:36.035Z,15.28
2018-11-03T03:44:36.044Z,15.31
2018-11-03T03:45:36.058Z,15.27
2018-11-03T03:46:36.079Z,15.29
2018-11-03T03:47:36.099Z,15.31
2018-11-03T03:48:36.115Z,15.25
2018-11-03T03:49:36.148Z,15.14
2018-11-03T03:50:36.151Z,15.13
2018-11-03T03:51:36.171Z,15.27
2018-11-03T03:52:36.186Z,15.23
2018-11-03T03:53:36.204Z,15.21
2018-11-03T03:54:36.222Z,15.13
2018-11-03T03:55:36.240Z,15.21
2018-11-03T03:56:36.264Z,15.16
2018-11-03T03:57:36.280Z,15.11
2018-11-03T03:58:36.290Z,15.09
2018-11-03T03:59:36.369Z,15.17
2018-11-03T04:00:36.332Z,15.20
2018-11-03T04:01:36.355Z,15.11
2018-11-03T04:02:36.368Z,15.21
2018-11-03T04:03:36.429Z,15.14
2018-11-03T04:04:36.431Z,15.17
2018-11-03T04:05:36.448Z,15.14
2018-11-03T04:06:36.431Z,15.14
2018-11-03T04:07:36.457Z,15.11
2018-11-03T04:08:36.471Z,15.06
2018-11-03T04:09:36.483Z,15.13
2018-11-03T04:10:36.550Z,15.11
2018-11-03T04:11:36.544Z,15.11
2018-11-03T04:12:36.537Z,15.10
2018-11-03T04:13:36.558Z,15.14
2018-11-03T04:14:36.580Z,15.11
2018-11-03T04:15:36.593Z,15.01
2018-11-03T04:16:36.610Z,15.13
2018-11-03T04:17:36.628Z,15.10
2018-11-03T04:18:36.645Z,15.17
2018-11-03T04:19:36.668Z,15.14
2018-11-03T04:20:36.685Z,15.27
2018-11-03T04:21:36.698Z,15.13
2018-11-03T04:22:36.725Z,15.17
2018-11-03T04:23:36.737Z,15.14
2018-11-03T04:24:36.751Z,15.10
2018-11-03T04:25:36.773Z,15.10
2018-11-03T04:26:36.785Z,15.11
2018-11-03T04:27:36.805Z,15.11
2018-11-03T04:28:36.828Z,15.11
2018-11-03T04:29:36.845Z,15.19
2018-11-03T04:30:36.861Z,15.19
2018-11-03T04:31:36.881Z,15.17
2018-11-03T04:32:36.892Z,15.14
2018-11-03T04:33:36.908Z,15.14
2018-11-03T04:34:36.926Z,15.06
2018-11-03T04:35:36.958Z,15.14
2018-11-03T04:36:36.986Z,15.13
2018-11-03T04:37:36.983Z,15.17
2018-11-03T04:38:37.003Z,15.14
2018-11-03T04:39:37.053Z,15.13
2018-11-03T04:40:37.036Z,15.07
2018-11-03T04:41:37.063Z,15.09
2018-11-03T04:42:37.071Z,15.11
2018-11-03T04:43:37.153Z,15.16
2018-11-03T04:44:37.102Z,15.19
2018-11-03T04:45:37.242Z,15.17
2018-11-03T04:46:37.145Z,15.14
2018-11-03T04:47:37.175Z,15.01
2018-11-03T04:48:37.179Z,15.07
2018-11-03T04:49:37.200Z,15.09
2018-11-03T04:50:37.214Z,15.06
2018-11-03T04:51:37.238Z,15.13
2018-11-03T04:52:37.254Z,15.13
2018-11-03T04:53:37.282Z,15.09
2018-11-03T04:54:37.275Z,15.06
2018-11-03T04:55:37.303Z,15.09
2018-11-03T04:56:37.321Z,15.16
2018-11-03T04:57:37.334Z,15.13
2018-11-03T04:58:37.354Z,15.14
2018-11-03T04:59:37.425Z,15.10
2018-11-03T05:00:37.386Z,15.13
2018-11-03T05:01:37.411Z,15.19
2018-11-03T05:02:37.422Z,15.09
2018-11-03T05:03:37.438Z,14.98
2018-11-03T05:04:37.454Z,15.09
2018-11-03T05:05:37.564Z,15.11
2018-11-03T05:06:37.502Z,15.09
2018-11-03T05:07:37.510Z,15.07
2018-11-03T05:08:37.532Z,15.01
2018-11-03T05:09:37.546Z,15.02
2018-11-03T05:10:37.680Z,15.02
2018-11-03T05:11:37.583Z,15.03
2018-11-03T05:12:37.599Z,15.01
2018-11-03T05:13:37.651Z,15.01
2018-11-03T05:14:37.634Z,15.14
2018-11-03T05:15:37.651Z,14.99
2018-11-03T05:16:37.671Z,15.01
2018-11-03T05:17:37.687Z,14.99
2018-11-03T05:18:37.712Z,14.98
2018-11-03T05:19:37.722Z,15.06
2018-11-03T05:20:37.745Z,15.02
2018-11-03T05:21:37.766Z,14.99
2018-11-03T05:22:37.783Z,14.95
2018-11-03T05:23:37.797Z,15.02
2018-11-03T05:24:37.814Z,15.14
2018-11-03T05:25:37.830Z,15.10
2018-11-03T05:26:37.850Z,15.01
2018-11-03T05:27:37.866Z,15.07
2018-11-03T05:28:37.886Z,15.01
2018-11-03T05:29:37.904Z,15.07
2018-11-03T05:30:37.919Z,15.01
2018-11-03T05:31:37.935Z,15.01
2018-11-03T05:32:37.953Z,15.07
2018-11-03T05:33:37.971Z,14.98
2018-11-03T05:34:37.992Z,15.06
2018-11-03T05:35:38.003Z,15.11
2018-11-03T05:36:38.022Z,14.96
2018-11-03T05:37:38.040Z,15.02
2018-11-03T05:38:38.057Z,14.94
2018-11-03T05:39:38.079Z,14.89
2018-11-03T05:40:38.095Z,15.03
2018-11-03T05:41:38.110Z,14.89
2018-11-03T05:42:38.131Z,14.89
2018-11-03T05:43:38.154Z,15.01
2018-11-03T05:44:38.164Z,15.02
2018-11-03T05:45:38.186Z,14.88
2018-11-03T05:46:38.323Z,14.92
2018-11-03T05:47:38.214Z,14.91
2018-11-03T05:48:38.240Z,14.84
2018-11-03T05:49:38.256Z,14.83
2018-11-03T05:50:38.278Z,14.84
2018-11-03T05:51:38.296Z,14.91
2018-11-03T05:52:38.310Z,14.72
2018-11-03T05:53:38.327Z,14.75
2018-11-03T05:54:38.343Z,14.86
2018-11-03T05:55:38.404Z,14.80
2018-11-03T05:56:38.375Z,14.81
2018-11-03T05:57:38.388Z,14.77
2018-11-03T05:58:38.441Z,14.84
2018-11-03T05:59:38.428Z,14.86
2018-11-03T06:00:38.448Z,14.84
2018-11-03T06:01:38.468Z,14.73
2018-11-03T06:02:38.483Z,14.75
2018-11-03T06:03:38.499Z,14.64
2018-11-03T06:04:38.517Z,14.64
2018-11-03T06:05:38.536Z,14.70
2018-11-03T06:06:38.547Z,14.70
2018-11-03T06:07:38.590Z,14.65
2018-11-03T06:08:38.632Z,14.75
2018-11-03T06:09:38.604Z,14.68
2018-11-03T06:10:38.623Z,14.73
2018-11-03T06:11:38.639Z,14.69
2018-11-03T06:12:38.658Z,14.62
2018-11-03T06:13:38.672Z,14.64
2018-11-03T06:14:38.696Z,14.55
2018-11-03T06:15:38.915Z,14.57
2018-11-03T06:16:38.796Z,14.68
2018-11-03T06:17:38.750Z,14.73
2018-11-03T06:18:38.768Z,14.73
2018-11-03T06:19:38.780Z,14.68
2018-11-03T06:20:38.816Z,14.72
2018-11-03T06:21:38.821Z,14.64
2018-11-03T06:22:38.959Z,14.62
2018-11-03T06:23:38.990Z,14.57
2018-11-03T06:24:38.885Z,14.52
2018-11-03T06:25:38.892Z,14.57
2018-11-03T06:26:38.902Z,14.64
2018-11-03T06:27:38.914Z,14.68
2018-11-03T06:28:38.935Z,14.69
2018-11-03T06:29:38.951Z,14.64
2018-11-03T06:30:38.973Z,14.60
2018-11-03T06:31:38.992Z,14.68
2018-11-03T06:32:39.004Z,14.64
2018-11-03T06:33:39.028Z,14.62
2018-11-03T06:34:39.106Z,14.65
2018-11-03T06:35:39.063Z,14.64
2018-11-03T06:36:39.080Z,14.68
2018-11-03T06:37:39.092Z,14.61
2018-11-03T06:38:39.130Z,14.65
2018-11-03T06:39:39.132Z,14.62
2018-11-03T06:40:39.148Z,14.65
2018-11-03T06:41:39.164Z,14.68
2018-11-03T06:42:39.179Z,14.72
2018-11-03T06:43:39.199Z,14.61
2018-11-03T06:44:39.216Z,14.55
2018-11-03T06:45:39.339Z,14.52
2018-11-03T06:46:39.367Z,14.64
2018-11-03T06:47:39.284Z,14.64
2018-11-03T06:48:39.318Z,14.51
2018-11-03T06:49:39.314Z,14.58
2018-11-03T06:50:39.328Z,14.55
2018-11-03T06:51:39.431Z,14.55
2018-11-03T06:52:39.355Z,14.46
2018-11-03T06:53:39.372Z,14.52
2018-11-03T06:54:39.391Z,14.52
2018-11-03T06:55:39.411Z,14.54
2018-11-03T06:56:39.425Z,14.51
2018-11-03T06:57:39.464Z,14.51
2018-11-03T06:58:39.461Z,14.61
2018-11-03T06:59:39.485Z,14.65
2018-11-03T07:00:39.499Z,14.55
2018-11-03T07:01:39.516Z,14.52
2018-11-03T07:02:39.537Z,14.60
2018-11-03T07:03:39.584Z,14.57
2018-11-03T07:04:39.569Z,14.54
2018-11-03T07:05:39.584Z,14.55
2018-11-03T07:06:39.601Z,14.55
2018-11-03T07:07:39.624Z,14.47
2018-11-03T07:08:39.636Z,14.55
2018-11-03T07:09:39.709Z,14.51
2018-11-03T07:10:39.672Z,14.51
2018-11-03T07:11:39.892Z,14.47
2018-11-03T07:12:39.839Z,14.58
2018-11-03T07:13:39.727Z,14.51
2018-11-03T07:14:39.748Z,14.54
2018-11-03T07:15:39.757Z,14.64
2018-11-03T07:16:39.810Z,14.55
2018-11-03T07:17:39.804Z,14.65
2018-11-03T07:18:39.813Z,14.61
2018-11-03T07:19:39.840Z,14.62
2018-11-03T07:20:39.850Z,14.61
2018-11-03T07:21:40.063Z,14.58
2018-11-03T07:22:39.880Z,14.54
2018-11-03T07:23:39.895Z,14.57
2018-11-03T07:24:39.920Z,14.61
2018-11-03T07:25:39.942Z,14.61
2018-11-03T07:26:39.948Z,14.69
2018-11-03T07:27:39.971Z,14.64
2018-11-03T07:28:39.992Z,14.73
2018-11-03T07:29:40.112Z,14.70
2018-11-03T07:30:40.030Z,14.69
2018-11-03T07:31:40.041Z,14.68
2018-11-03T07:32:40.070Z,14.68
2018-11-03T07:33:40.080Z,14.73
2018-11-03T07:34:40.097Z,14.80
2018-11-03T07:35:40.114Z,14.62
2018-11-03T07:36:40.139Z,14.75
2018-11-03T07:37:40.148Z,14.70
2018-11-03T07:38:40.171Z,14.73
2018-11-03T07:39:40.212Z,14.78
2018-11-03T07:40:40.271Z,14.80
2018-11-03T07:41:40.358Z,14.68
2018-11-03T07:42:40.372Z,14.62
2018-11-03T07:43:40.255Z,14.70
2018-11-03T07:44:40.299Z,14.73
2018-11-03T07:45:40.289Z,14.80
2018-11-03T07:46:40.313Z,14.65
2018-11-03T07:47:40.328Z,14.61
2018-11-03T07:48:40.379Z,14.68
2018-11-03T07:49:40.367Z,14.65
2018-11-03T07:50:40.381Z,14.61
2018-11-03T07:51:40.389Z,14.64
2018-11-03T07:52:40.408Z,14.64
2018-11-03T07:53:40.429Z,14.52
2018-11-03T07:54:40.476Z,14.52
2018-11-03T07:55:40.465Z,14.61
2018-11-03T07:56:40.485Z,14.68
2018-11-03T07:57:40.500Z,14.69
2018-11-03T07:58:40.578Z,14.62
2018-11-03T07:59:40.550Z,14.68
2018-11-03T08:00:40.632Z,14.72
2018-11-03T08:01:40.568Z,14.64
2018-11-03T08:02:40.597Z,14.62
2018-11-03T08:03:40.604Z,14.77
2018-11-03T08:04:40.641Z,14.78
2018-11-03T08:05:40.642Z,14.77
2018-11-03T08:06:40.663Z,14.78
2018-11-03T08:07:40.677Z,14.83
2018-11-03T08:08:40.694Z,14.89
2018-11-03T08:09:40.714Z,15.01
2018-11-03T08:10:40.754Z,15.11
2018-11-03T08:11:40.745Z,15.23
2018-11-03T08:12:40.772Z,15.21
2018-11-03T08:13:40.790Z,15.20
2018-11-03T08:14:40.802Z,15.25
2018-11-03T08:15:40.852Z,15.21
2018-11-03T08:16:40.845Z,15.23
2018-11-03T08:17:40.861Z,15.35
2018-11-03T08:18:40.878Z,15.35
2018-11-03T08:19:40.895Z,15.51
2018-11-03T08:20:40.909Z,15.49
2018-11-03T08:21:41.040Z,15.47
2018-11-03T08:22:40.944Z,15.59
2018-11-03T08:23:41.023Z,16.01
2018-11-03T08:24:40.977Z,16.20
2018-11-03T08:25:40.993Z,16.21
2018-11-03T08:26:41.013Z,16.24
2018-11-03T08:27:41.035Z,16.39
2018-11-03T08:28:41.045Z,16.45
2018-11-03T08:29:41.066Z,16.73
2018-11-03T08:30:41.090Z,16.78
2018-11-03T08:31:41.137Z,16.86
2018-11-03T08:32:41.125Z,17.49
2018-11-03T08:33:41.137Z,17.55
2018-11-03T08:34:41.161Z,17.44
2018-11-03T08:35:41.178Z,17.58
2018-11-03T08:36:41.194Z,17.75
2018-11-03T08:37:41.213Z,17.52
2018-11-03T08:38:41.234Z,17.43
2018-11-03T08:39:41.403Z,17.11
2018-11-03T08:40:41.269Z,17.04
2018-11-03T08:41:41.285Z,17.00
2018-11-03T08:42:41.311Z,17.12
2018-11-03T08:43:41.330Z,17.07
2018-11-03T08:44:41.347Z,16.76
2018-11-03T08:45:41.386Z,16.78
2018-11-03T08:46:41.382Z,16.48
2018-11-03T08:47:41.401Z,16.35
2018-11-03T08:48:41.440Z,16.25
2018-11-03T08:49:41.437Z,16.11
2018-11-03T08:50:41.457Z,16.09
2018-11-03T08:51:41.523Z,16.14
2018-11-03T08:52:41.497Z,16.17
2018-11-03T08:53:41.513Z,16.28
2018-11-03T08:54:41.531Z,16.33
2018-11-03T08:55:41.550Z,16.33
2018-11-03T08:56:41.566Z,16.31
2018-11-03T08:57:41.582Z,16.27
2018-11-03T08:58:41.606Z,16.21
2018-11-03T08:59:41.750Z,16.17
2018-11-03T09:00:41.649Z,16.08
2018-11-03T09:01:41.658Z,16.14
2018-11-03T09:02:41.683Z,16.31
2018-11-03T09:03:41.794Z,16.00
2018-11-03T09:04:41.722Z,15.92
2018-11-03T09:05:41.729Z,15.83
2018-11-03T09:06:41.804Z,15.96
2018-11-03T09:07:41.770Z,15.96
2018-11-03T09:08:41.790Z,16.00
2018-11-03T09:09:41.805Z,16.02
2018-11-03T09:10:41.830Z,15.96
2018-11-03T09:11:41.842Z,15.90
2018-11-03T09:12:41.868Z,15.97
2018-11-03T09:13:41.881Z,16.08
2018-11-03T09:14:42.001Z,16.11
2018-11-03T09:15:41.933Z,16.12
2018-11-03T09:16:41.933Z,16.28
2018-11-03T09:17:41.961Z,16.25
2018-11-03T09:18:42.178Z,16.27
2018-11-03T09:19:41.990Z,16.27
2018-11-03T09:20:42.214Z,16.42
2018-11-03T09:21:42.355Z,16.43
2018-11-03T09:22:42.102Z,16.50
2018-11-03T09:23:42.072Z,16.46
2018-11-03T09:24:42.087Z,16.46
2018-11-03T09:25:42.100Z,16.41
2018-11-03T09:26:42.184Z,16.20
2018-11-03T09:27:42.137Z,16.12
2018-11-03T09:28:42.158Z,16.12
2018-11-03T09:29:42.171Z,16.12
2018-11-03T09:30:42.194Z,16.11
2018-11-03T09:31:42.215Z,16.28
2018-11-03T09:32:42.265Z,16.27
2018-11-03T09:33:42.249Z,16.20
2018-11-03T09:34:42.332Z,16.20
2018-11-03T09:35:42.289Z,16.20
2018-11-03T09:36:42.302Z,16.39
2018-11-03T09:37:42.522Z,16.34
2018-11-03T09:38:42.463Z,16.41
2018-11-03T09:39:42.354Z,16.34
2018-11-03T09:40:42.377Z,16.45
2018-11-03T09:41:42.394Z,16.49
2018-11-03T09:42:42.615Z,16.67
2018-11-03T09:43:42.637Z,16.63
2018-11-03T09:44:42.652Z,16.78
2018-11-03T09:45:42.678Z,16.82
2018-11-03T09:46:42.491Z,16.78
2018-11-03T09:47:42.506Z,16.89
2018-11-03T09:48:42.526Z,16.97
2018-11-03T09:49:42.576Z,16.88
2018-11-03T09:50:42.755Z,16.86
2018-11-03T09:51:42.583Z,16.85
2018-11-03T09:52:42.593Z,17.07
2018-11-03T09:53:42.610Z,17.01
2018-11-03T09:54:42.642Z,17.04
2018-11-03T09:55:42.654Z,17.04
2018-11-03T09:56:42.952Z,17.01
2018-11-03T09:57:42.891Z,17.04
2018-11-03T09:58:42.710Z,16.76
2018-11-03T09:59:42.726Z,16.76
2018-11-03T10:00:42.749Z,16.83
2018-11-03T10:01:42.796Z,16.73
2018-11-03T10:02:42.786Z,16.60
2018-11-03T10:03:42.798Z,16.66
2018-11-03T10:04:42.817Z,16.66
2018-11-03T10:05:43.042Z,16.53
2018-11-03T10:06:43.187Z,16.53
2018-11-03T10:07:43.078Z,16.61
2018-11-03T10:08:43.143Z,16.60
2018-11-03T10:09:43.119Z,16.58
2018-11-03T10:10:43.138Z,16.66
2018-11-03T10:11:43.154Z,16.88
2018-11-03T10:12:42.974Z,16.91
2018-11-03T10:13:42.989Z,16.97
2018-11-03T10:14:43.023Z,17.14
2018-11-03T10:15:43.064Z,17.07
2018-11-03T10:16:43.042Z,17.06
2018-11-03T10:17:43.060Z,17.01
2018-11-03T10:18:43.082Z,17.01
2018-11-03T10:19:43.108Z,16.93
2018-11-03T10:20:43.382Z,16.86
2018-11-03T10:21:43.147Z,16.94
2018-11-03T10:22:43.193Z,17.04
2018-11-03T10:23:43.174Z,17.14
2018-11-03T10:24:43.399Z,17.14
2018-11-03T10:25:43.420Z,17.37
2018-11-03T10:26:43.474Z,17.37
2018-11-03T10:27:43.258Z,17.49
2018-11-03T10:28:43.265Z,17.16
2018-11-03T10:29:43.289Z,17.31
2018-11-03T10:30:43.313Z,17.26
2018-11-03T10:31:43.323Z,17.26
2018-11-03T10:32:43.347Z,17.31
2018-11-03T10:33:43.526Z,17.21
2018-11-03T10:34:43.379Z,17.18
2018-11-03T10:35:43.393Z,17.23
2018-11-03T10:36:43.418Z,17.18
2018-11-03T10:37:43.438Z,17.26
2018-11-03T10:38:43.454Z,17.16
2018-11-03T10:39:43.470Z,17.16
2018-11-03T10:40:43.496Z,17.15
2018-11-03T10:41:43.511Z,16.97
2018-11-03T10:42:43.533Z,17.18
2018-11-03T10:43:43.547Z,16.93
2018-11-03T10:44:43.598Z,16.97
2018-11-03T10:45:43.586Z,16.89
2018-11-03T10:46:43.607Z,16.97
2018-11-03T10:47:43.626Z,16.98
2018-11-03T10:48:43.643Z,16.98
2018-11-03T10:49:43.660Z,17.11
2018-11-03T10:50:43.791Z,17.19
2018-11-03T10:51:43.702Z,17.18
2018-11-03T10:52:43.718Z,17.16
2018-11-03T10:53:43.800Z,17.25
2018-11-03T10:54:43.754Z,17.28
2018-11-03T10:55:43.778Z,17.22
2018-11-03T10:56:43.966Z,17.26
2018-11-03T10:57:43.814Z,17.34
2018-11-03T10:58:43.841Z,17.31
2018-11-03T10:59:43.847Z,17.26
2018-11-03T11:00:44.069Z,17.36
2018-11-03T11:01:43.881Z,17.46
2018-11-03T11:02:43.902Z,17.44
2018-11-03T11:03:44.044Z,17.54
2018-11-03T11:04:43.937Z,17.54
2018-11-03T11:05:43.961Z,17.49
2018-11-03T11:06:43.983Z,17.38
2018-11-03T11:07:44.004Z,17.54
2018-11-03T11:08:44.258Z,17.55
2018-11-03T11:09:44.033Z,17.62
2018-11-03T11:10:44.060Z,17.49
2018-11-03T11:11:44.106Z,17.48
2018-11-03T11:12:44.096Z,17.51
2018-11-03T11:13:44.106Z,17.51
2018-11-03T11:14:44.133Z,17.26
2018-11-03T11:15:44.220Z,17.28
2018-11-03T11:16:44.394Z,17.28
2018-11-03T11:17:44.389Z,17.25
2018-11-03T11:18:44.409Z,17.28
2018-11-03T11:19:44.452Z,17.22
2018-11-03T11:20:44.241Z,17.12
2018-11-03T11:21:44.286Z,17.04
2018-11-03T11:22:44.286Z,17.15
2018-11-03T11:23:44.411Z,17.28
2018-11-03T11:24:44.394Z,17.16
2018-11-03T11:25:44.336Z,16.67
2018-11-03T11:26:44.362Z,16.71
2018-11-03T11:27:44.428Z,16.85
2018-11-03T11:28:44.390Z,16.93
2018-11-03T11:29:44.416Z,16.94
2018-11-03T11:30:44.437Z,16.98
2018-11-03T11:31:44.490Z,17.22
2018-11-03T11:32:44.482Z,17.40
2018-11-03T11:33:44.489Z,17.51
2018-11-03T11:34:44.510Z,17.58
2018-11-03T11:35:44.550Z,17.64
2018-11-03T11:36:44.542Z,17.70
2018-11-03T11:37:44.757Z,17.72
2018-11-03T11:38:44.591Z,17.63
2018-11-03T11:39:44.597Z,17.52
2018-11-03T11:40:44.620Z,17.37
2018-11-03T11:41:44.633Z,17.40
2018-11-03T11:42:44.666Z,17.43
2018-11-03T11:43:44.738Z,17.31
2018-11-03T11:44:44.690Z,17.22
2018-11-03T11:45:44.715Z,17.16
2018-11-03T11:46:44.730Z,17.31
2018-11-03T11:47:44.746Z,17.41
2018-11-03T11:48:44.767Z,17.40
2018-11-03T11:49:44.830Z,17.23
2018-11-03T11:50:44.815Z,17.16
2018-11-03T11:51:44.831Z,17.23
2018-11-03T11:52:44.845Z,17.38
2018-11-03T11:53:44.862Z,17.37
2018-11-03T11:54:44.981Z,17.41
2018-11-03T11:55:44.958Z,17.30
2018-11-03T11:56:44.927Z,17.26
2018-11-03T11:57:44.947Z,17.25
2018-11-03T11:58:44.955Z,17.25
2018-11-03T11:59:44.974Z,17.22
2018-11-03T12:00:45.184Z,17.21
2018-11-03T12:01:45.011Z,17.06
2018-11-03T12:02:45.038Z,17.12
2018-11-03T12:03:45.056Z,17.16
2018-11-03T12:04:45.074Z,17.16
2018-11-03T12:05:45.091Z,17.33
2018-11-03T12:06:45.118Z,17.30
2018-11-03T12:07:45.130Z,17.14
2018-11-03T12:08:45.141Z,17.04
2018-11-03T12:09:45.188Z,17.07
2018-11-03T12:10:45.185Z,16.81
2018-11-03T12:11:45.203Z,16.71
2018-11-03T12:12:45.243Z,16.73
2018-11-03T12:13:45.234Z,16.78
2018-11-03T12:14:45.463Z,16.64
2018-11-03T12:15:45.279Z,16.60
2018-11-03T12:16:45.298Z,16.67
2018-11-03T12:17:45.312Z,16.81
2018-11-03T12:18:45.334Z,16.96
2018-11-03T12:19:45.350Z,17.07
2018-11-03T12:20:45.365Z,17.03
2018-11-03T12:21:45.387Z,16.94
2018-11-03T12:22:45.411Z,17.15
2018-11-03T12:23:45.423Z,17.12
2018-11-03T12:24:45.495Z,17.18
2018-11-03T12:25:45.558Z,17.18
2018-11-03T12:26:45.482Z,17.28
2018-11-03T12:27:45.507Z,17.37
2018-11-03T12:28:45.604Z,17.41
2018-11-03T12:29:45.536Z,17.52
2018-11-03T12:30:45.558Z,17.59
2018-11-03T12:31:45.571Z,17.72
2018-11-03T12:32:45.595Z,17.82
2018-11-03T12:33:45.622Z,17.87
2018-11-03T12:34:45.635Z,17.93
2018-11-03T12:35:45.653Z,18.07
2018-11-03T12:36:45.670Z,17.90
2018-11-03T12:37:45.696Z,17.92
2018-11-03T12:38:45.715Z,17.81
2018-11-03T12:39:45.732Z,17.70
2018-11-03T12:40:45.800Z,17.66
2018-11-03T12:41:45.767Z,17.72
2018-11-03T12:42:45.786Z,17.56
2018-11-03T12:43:45.799Z,17.58
2018-11-03T12:44:45.824Z,17.64
2018-11-03T12:45:45.843Z,17.72
2018-11-03T12:46:45.859Z,17.81
2018-11-03T12:47:45.883Z,17.97
2018-11-03T12:48:45.892Z,18.15
2018-11-03T12:49:45.912Z,18.27
2018-11-03T12:50:45.933Z,18.26
2018-11-03T12:51:45.950Z,18.45
2018-11-03T12:52:45.975Z,18.72